Time;durP1;ratioP1;P1;durP2;ratioP2;P2;SDS_P1;SDS_P2;PMS_P1;PMS_P2;Temp;Humidity;BMP_temperature;BMP_pressure;BME280_temperature;BME280_humidity;BME280_pressure;Samples;Min_cycle;Max_cycle;Signal;HPM_P1;HPM_P2
2021/09/03 00:01:50;;;;;;;12.27;7.47;;;13.40;97.80;;;;;;5069837;28;20025;-72
2021/09/03 00:04:19;;;;;;;13.60;8.15;;;13.50;97.70;;;;;;5057314;28;20017;-72
2021/09/03 00:06:45;;;;;;;12.40;7.07;;;13.50;97.50;;;;;;5055471;28;20041;-71
2021/09/03 00:09:10;;;;;;;13.18;7.20;;;13.40;97.50;;;;;;5054309;28;20123;-72
2021/09/03 00:11:36;;;;;;;13.52;7.13;;;13.30;97.70;;;;;;5074297;28;20052;-72
2021/09/03 00:14:02;;;;;;;15.13;8.32;;;13.20;97.80;;;;;;5074976;28;20111;-72
2021/09/03 00:16:27;;;;;;;12.30;7.70;;;13.00;98.00;;;;;;5075898;28;20310;-72
2021/09/03 00:18:53;;;;;;;12.93;7.82;;;12.80;98.00;;;;;;5072710;28;20021;-72
2021/09/03 00:21:19;;;;;;;13.68;7.85;;;13.10;98.00;;;;;;5062898;28;20033;-72
2021/09/03 00:23:50;;;;;;;11.15;7.28;;;12.90;98.00;;;;;;5073802;28;20029;-72
2021/09/03 00:26:17;;;;;;;12.77;7.60;;;12.60;98.00;;;;;;5071993;28;20025;-71
2021/09/03 00:28:46;;;;;;;12.32;7.68;;;12.30;98.00;;;;;;5073669;28;20042;-74
2021/09/03 00:31:12;;;;;;;14.90;7.40;;;12.10;98.00;;;;;;5063729;28;20033;-71
2021/09/03 00:33:37;;;;;;;13.70;8.20;;;11.90;98.00;;;;;;5075084;28;20078;-71
2021/09/03 00:36:03;;;;;;;15.68;8.02;;;11.70;98.00;;;;;;5076023;28;20033;-72
2021/09/03 00:38:29;;;;;;;14.13;8.00;;;11.50;98.00;;;;;;5068321;28;20029;-72
2021/09/03 00:40:54;;;;;;;13.10;8.50;;;11.30;98.00;;;;;;5056008;28;20056;-72
2021/09/03 00:43:20;;;;;;;12.60;8.27;;;11.40;98.00;;;;;;5073930;28;20445;-71
2021/09/03 00:45:49;;;;;;;12.80;7.47;;;11.50;98.00;;;;;;5072954;28;20112;-72
2021/09/03 00:48:14;;;;;;;12.75;8.68;;;11.60;98.00;;;;;;5075874;28;20417;-71
2021/09/03 00:50:41;;;;;;;13.02;7.78;;;11.60;98.00;;;;;;5075166;28;20071;-72
2021/09/03 00:53:07;;;;;;;13.98;8.60;;;11.40;98.00;;;;;;5074765;28;20056;-71
2021/09/03 00:55:33;;;;;;;14.93;8.25;;;11.30;98.00;;;;;;5074205;28;20373;-72
2021/09/03 00:57:58;;;;;;;13.73;7.47;;;11.10;98.00;;;;;;5061448;28;20097;-72
2021/09/03 01:00:24;;;;;;;14.25;7.90;;;10.90;98.00;;;;;;5073088;28;20033;-71
2021/09/03 01:02:50;;;;;;;13.52;8.40;;;10.80;98.00;;;;;;5075547;28;20025;-72
2021/09/03 01:05:15;;;;;;;15.15;8.60;;;10.80;98.00;;;;;;5063277;28;20045;-71
2021/09/03 01:07:41;;;;;;;12.68;8.23;;;10.70;98.00;;;;;;5068042;28;20033;-71
2021/09/03 01:10:07;;;;;;;13.23;8.73;;;10.60;98.00;;;;;;5058171;28;20105;-72
2021/09/03 01:12:32;;;;;;;15.88;8.70;;;10.50;98.00;;;;;;5073800;28;20036;-72
2021/09/03 01:14:58;;;;;;;15.35;9.13;;;10.50;98.00;;;;;;5075292;28;20020;-71
2021/09/03 01:17:26;;;;;;;11.40;7.90;;;10.40;98.00;;;;;;5074383;28;20033;-73
2021/09/03 01:19:52;;;;;;;14.63;8.60;;;10.30;98.00;;;;;;5074997;28;20432;-72
2021/09/03 01:22:21;;;;;;;13.52;8.95;;;10.20;98.00;;;;;;5074790;28;20138;-71
2021/09/03 01:24:46;;;;;;;13.52;8.32;;;10.20;98.00;;;;;;5070655;28;20029;-71
2021/09/03 01:27:12;;;;;;;13.45;8.68;;;10.10;98.00;;;;;;5070956;28;20433;-70
2021/09/03 01:29:37;;;;;;;15.00;9.35;;;10.10;98.00;;;;;;5057893;28;20029;-71
2021/09/03 01:32:03;;;;;;;16.70;8.75;;;10.20;98.00;;;;;;5063072;28;20032;-71
2021/09/03 01:34:29;;;;;;;12.70;8.48;;;10.10;98.00;;;;;;5075307;28;20028;-71
2021/09/03 01:36:55;;;;;;;15.07;9.50;;;9.90;98.00;;;;;;5074269;28;20115;-71
2021/09/03 01:39:20;;;;;;;14.13;8.32;;;9.80;98.00;;;;;;5073676;28;20103;-72
2021/09/03 01:41:46;;;;;;;14.93;9.35;;;9.80;98.00;;;;;;5075376;28;20079;-72
2021/09/03 01:44:12;;;;;;;13.77;8.55;;;9.90;98.00;;;;;;5075266;28;20028;-72
2021/09/03 01:46:38;;;;;;;17.13;9.27;;;9.80;98.00;;;;;;5073794;28;20040;-71
2021/09/03 01:49:03;;;;;;;16.33;9.30;;;9.70;98.00;;;;;;5077487;28;20040;-72
2021/09/03 01:51:29;;;;;;;13.70;8.77;;;9.70;98.00;;;;;;5077920;28;21611;-72
2021/09/03 01:53:55;;;;;;;17.05;10.18;;;9.60;98.00;;;;;;5076406;28;20047;-72
2021/09/03 01:56:20;;;;;;;16.98;9.27;;;9.60;98.00;;;;;;5078443;28;20021;-71
2021/09/03 01:58:46;;;;;;;16.65;10.05;;;9.60;98.00;;;;;;5078748;28;20033;-72
2021/09/03 02:01:15;;;;;;;15.52;9.57;;;9.60;98.00;;;;;;5075374;28;20025;-72
2021/09/03 02:03:40;;;;;;;16.70;10.20;;;9.50;98.00;;;;;;5072123;28;20029;-71
2021/09/03 02:06:09;;;;;;;16.65;10.07;;;9.50;98.00;;;;;;5072790;28;20055;-72
2021/09/03 02:08:35;;;;;;;17.67;10.20;;;9.50;98.00;;;;;;5074134;28;20036;-71
2021/09/03 02:11:00;;;;;;;15.32;10.15;;;9.50;98.00;;;;;;5074222;28;20047;-72
2021/09/03 02:13:26;;;;;;;16.65;9.55;;;9.50;98.00;;;;;;5074760;28;20039;-70
2021/09/03 02:15:52;;;;;;;15.38;9.88;;;9.40;98.00;;;;;;5073043;28;20107;-72
2021/09/03 02:18:17;;;;;;;16.70;9.90;;;9.40;98.00;;;;;;5073088;28;20440;-72
2021/09/03 02:20:43;;;;;;;15.18;9.57;;;9.30;98.00;;;;;;5073699;28;20119;-73
2021/09/03 02:23:09;;;;;;;15.68;9.43;;;9.30;98.00;;;;;;5070806;28;20035;-72
2021/09/03 02:25:35;;;;;;;15.52;9.88;;;9.30;98.00;;;;;;5076262;28;20299;-71
2021/09/03 02:28:01;;;;;;;18.90;10.35;;;9.40;97.60;;;;;;5072308;28;20028;-72
2021/09/03 02:30:26;;;;;;;16.10;9.50;;;9.40;98.00;;;;;;5075210;28;20429;-73
2021/09/03 02:32:52;;;;;;;22.25;10.07;;;9.30;97.60;;;;;;5078602;28;20028;-72
2021/09/03 02:35:18;;;;;;;17.08;10.60;;;9.40;98.00;;;;;;5077541;28;20028;-72
2021/09/03 02:37:44;;;;;;;15.73;9.15;;;9.30;98.00;;;;;;5077441;28;20036;-72
2021/09/03 02:40:13;;;;;;;14.82;9.48;;;9.20;98.00;;;;;;5068363;28;20082;-72
2021/09/03 02:42:39;;;;;;;16.23;9.27;;;9.10;98.00;;;;;;5076827;28;20294;-72
2021/09/03 02:45:05;;;;;;;17.33;10.25;;;9.20;97.70;;;;;;5077516;28;20082;-72
2021/09/03 02:47:31;;;;;;;18.38;10.73;;;9.20;96.90;;;;;;5071151;28;20127;-72
2021/09/03 02:49:56;;;;;;;19.75;9.23;;;9.20;97.50;;;;;;5078286;28;20437;-72
2021/09/03 02:52:22;;;;;;;19.27;10.40;;;9.20;97.10;;;;;;5077349;28;20051;-72
2021/09/03 02:54:48;;;;;;;16.27;10.25;;;9.10;97.40;;;;;;5070628;28;20108;-72
2021/09/03 02:57:13;;;;;;;17.67;10.13;;;9.00;97.10;;;;;;5072706;28;20033;-72
2021/09/03 02:59:39;;;;;;;16.88;10.27;;;9.00;96.80;;;;;;5075595;28;20032;-72
2021/09/03 03:02:04;;;;;;;16.15;9.55;;;9.00;97.30;;;;;;5075296;28;20074;-72
2021/09/03 03:04:30;;;;;;;15.52;10.23;;;8.90;97.50;;;;;;5075648;28;20372;-72
2021/09/03 03:06:56;;;;;;;16.55;10.00;;;8.90;96.10;;;;;;5077369;28;20053;-72
2021/09/03 03:09:21;;;;;;;17.90;10.13;;;9.00;96.90;;;;;;5063070;28;20060;-72
2021/09/03 03:11:50;;;;;;;14.65;9.93;;;8.90;97.40;;;;;;5073759;28;20028;-72
2021/09/03 03:14:26;;;;;;;17.17;10.90;;;8.90;96.70;;;;;;5076246;28;20079;-72
2021/09/03 03:16:55;;;;;;;19.20;10.00;;;8.90;96.70;;;;;;5071322;28;20036;-72
2021/09/03 03:19:22;;;;;;;15.88;9.98;;;8.80;97.20;;;;;;5076989;28;20506;-71
2021/09/03 03:21:47;;;;;;;17.83;10.95;;;8.70;96.70;;;;;;5077657;28;20033;-72
2021/09/03 03:24:13;;;;;;;18.05;10.73;;;8.60;97.30;;;;;;5073851;28;20070;-72
2021/09/03 03:26:39;;;;;;;13.70;8.93;;;8.50;97.70;;;;;;5076188;28;20313;-71
2021/09/03 03:29:04;;;;;;;16.65;10.20;;;8.40;97.50;;;;;;5076609;28;20039;-72
2021/09/03 03:31:32;;;;;;;19.73;11.05;;;8.40;96.70;;;;;;5073174;28;20040;-71
2021/09/03 03:34:00;;;;;;;23.05;12.10;;;8.60;96.00;;;;;;5065242;28;20102;-72
2021/09/03 03:36:26;;;;;;;18.05;10.43;;;8.70;95.40;;;;;;5076242;28;20060;-72
2021/09/03 03:38:52;;;;;;;18.45;11.52;;;8.80;96.60;;;;;;5075098;28;20433;-72
2021/09/03 03:41:17;;;;;;;18.80;11.07;;;8.80;96.20;;;;;;5072279;28;20031;-72
2021/09/03 03:43:43;;;;;;;17.67;10.98;;;8.70;96.30;;;;;;5076064;28;20033;-71
2021/09/03 03:46:09;;;;;;;17.55;10.73;;;8.80;94.60;;;;;;5076529;28;20024;-72
2021/09/03 03:48:34;;;;;;;19.08;11.77;;;8.80;96.00;;;;;;5075273;28;20035;-71
2021/09/03 03:51:00;;;;;;;20.33;10.68;;;8.80;95.10;;;;;;5069965;28;20051;-71
2021/09/03 03:53:29;;;;;;;18.00;11.45;;;8.80;96.60;;;;;;5074318;28;20028;-72
2021/09/03 03:55:55;;;;;;;16.90;10.38;;;8.60;96.30;;;;;;5071941;28;20024;-72
2021/09/03 03:58:20;;;;;;;16.50;9.68;;;8.60;95.50;;;;;;5074999;28;20034;-72
2021/09/03 04:00:46;;;;;;;17.05;10.88;;;8.70;95.40;;;;;;5075700;28;20028;-71
2021/09/03 04:03:12;;;;;;;16.83;10.98;;;8.70;95.70;;;;;;5076379;28;20020;-72
2021/09/03 04:05:37;;;;;;;18.42;10.90;;;8.60;96.00;;;;;;5076317;28;20056;-72
2021/09/03 04:08:03;;;;;;;18.13;10.93;;;8.60;95.30;;;;;;5076255;28;20432;-72
2021/09/03 04:10:29;;;;;;;16.95;11.07;;;8.60;95.40;;;;;;5073712;28;20122;-72
2021/09/03 04:12:55;;;;;;;19.27;11.23;;;8.80;94.30;;;;;;5075881;28;20095;-72
2021/09/03 04:15:21;;;;;;;19.58;12.02;;;8.80;95.40;;;;;;5074846;28;20103;-72
2021/09/03 04:17:46;;;;;;;17.30;10.70;;;8.70;95.20;;;;;;5075509;28;20043;-72
2021/09/03 04:20:13;;;;;;;16.92;10.55;;;8.60;95.20;;;;;;5075451;28;20021;-71
2021/09/03 04:22:38;;;;;;;17.70;10.43;;;8.60;95.30;;;;;;5059963;28;20100;-71
2021/09/03 04:25:06;;;;;;;16.85;10.18;;;8.50;95.50;;;;;;5065896;28;20175;-71
2021/09/03 04:27:32;;;;;;;19.35;11.13;;;8.40;95.20;;;;;;5062667;28;20358;-71
2021/09/03 04:29:57;;;;;;;20.05;11.52;;;8.30;95.10;;;;;;5071637;28;20025;-72
2021/09/03 04:32:23;;;;;;;17.52;10.38;;;8.40;93.90;;;;;;5072134;28;20363;-72
2021/09/03 04:34:52;;;;;;;21.15;11.90;;;8.50;93.60;;;;;;5076033;28;20413;-72
2021/09/03 04:37:17;;;;;;;16.80;10.75;;;8.60;93.80;;;;;;5075995;28;20419;-72
2021/09/03 04:39:43;;;;;;;22.95;12.93;;;8.60;94.30;;;;;;5061261;28;20049;-72
2021/09/03 04:42:08;;;;;;;23.40;12.98;;;8.70;93.70;;;;;;5056254;28;20083;-72
2021/09/03 04:44:34;;;;;;;22.52;12.23;;;8.80;93.60;;;;;;5071269;28;20033;-72
2021/09/03 04:47:00;;;;;;;22.98;13.85;;;8.80;93.40;;;;;;5069320;28;20024;-72
2021/09/03 04:49:26;;;;;;;20.73;12.00;;;8.80;93.70;;;;;;5067257;28;20040;-72
2021/09/03 04:51:51;;;;;;;23.10;13.45;;;8.80;93.80;;;;;;5070943;28;20028;-72
2021/09/03 04:54:17;;;;;;;25.85;12.95;;;8.80;94.30;;;;;;5070348;28;20017;-72
2021/09/03 04:56:43;;;;;;;19.92;12.05;;;8.70;94.70;;;;;;5061220;28;20093;-72
2021/09/03 04:59:08;;;;;;;20.40;12.50;;;8.60;93.80;;;;;;5067031;28;20073;-72
2021/09/03 05:01:34;;;;;;;25.50;15.05;;;8.60;93.90;;;;;;5074809;28;20091;-72
2021/09/03 05:04:00;;;;;;;21.80;14.27;;;8.80;92.80;;;;;;5075601;28;20017;-72
2021/09/03 05:06:25;;;;;;;30.23;15.65;;;8.90;93.10;;;;;;5075043;28;20040;-72
2021/09/03 05:08:51;;;;;;;23.17;15.07;;;9.00;93.10;;;;;;5061236;28;20444;-72
2021/09/03 05:11:16;;;;;;;23.90;13.60;;;9.00;93.40;;;;;;5075400;28;20035;-72
2021/09/03 05:13:42;;;;;;;25.02;14.90;;;9.00;94.10;;;;;;5075418;28;20044;-72
2021/09/03 05:16:08;;;;;;;24.23;14.88;;;9.00;93.70;;;;;;5073453;28;20365;-72
2021/09/03 05:18:34;;;;;;;27.27;14.90;;;9.10;93.10;;;;;;5073288;28;20068;-71
2021/09/03 05:20:59;;;;;;;29.15;15.98;;;9.20;93.20;;;;;;5073651;28;20078;-72
2021/09/03 05:23:25;;;;;;;28.35;16.13;;;9.20;93.50;;;;;;5075545;28;20373;-72
2021/09/03 05:25:50;;;;;;;25.98;15.52;;;9.20;93.80;;;;;;5074204;28;20024;-72
2021/09/03 05:28:16;;;;;;;28.38;16.40;;;9.20;93.80;;;;;;5078346;28;20028;-71
2021/09/03 05:30:42;;;;;;;29.10;16.02;;;9.30;93.70;;;;;;5077881;28;20075;-72
2021/09/03 05:33:07;;;;;;;27.52;15.90;;;9.30;94.40;;;;;;5075108;28;20025;-71
2021/09/03 05:35:33;;;;;;;27.55;14.95;;;9.30;94.10;;;;;;5079262;28;20024;-72
2021/09/03 05:38:04;;;;;;;24.45;14.93;;;9.30;94.10;;;;;;5078250;28;20032;-72
2021/09/03 05:40:30;;;;;;;29.80;15.05;;;9.30;94.50;;;;;;5076735;28;20024;-72
2021/09/03 05:42:55;;;;;;;25.50;14.90;;;9.30;94.50;;;;;;5068302;28;20086;-72
2021/09/03 05:45:21;;;;;;;24.20;15.43;;;9.30;94.30;;;;;;5079057;28;20345;-71
2021/09/03 05:47:48;;;;;;;24.25;14.70;;;9.40;94.10;;;;;;5079157;28;20103;-72
2021/09/03 05:50:15;;;;;;;27.85;15.38;;;9.50;94.10;;;;;;5078737;28;20016;-72
2021/09/03 05:52:41;;;;;;;23.13;15.15;;;9.60;94.20;;;;;;5078386;28;20056;-72
2021/09/03 05:55:07;;;;;;;26.02;15.60;;;9.70;93.90;;;;;;5062036;28;20111;-72
2021/09/03 05:57:33;;;;;;;22.42;13.80;;;9.90;93.80;;;;;;5059030;28;20036;-72
2021/09/03 05:59:59;;;;;;;24.67;13.25;;;10.00;94.90;;;;;;5069076;28;20025;-72
2021/09/03 06:02:25;;;;;;;22.30;12.60;;;9.90;96.00;;;;;;5078973;28;20048;-71
2021/09/03 06:04:51;;;;;;;19.90;13.02;;;9.90;95.40;;;;;;5078958;28;20024;-71
2021/09/03 06:07:17;;;;;;;18.80;12.23;;;10.00;95.00;;;;;;5078667;28;20310;-72
2021/09/03 06:09:42;;;;;;;21.95;13.50;;;10.10;95.10;;;;;;5076611;28;20028;-71
2021/09/03 06:12:09;;;;;;;25.65;15.48;;;10.40;93.30;;;;;;5078959;28;20032;-71
2021/09/03 06:14:34;;;;;;;22.55;13.50;;;11.00;95.30;;;;;;5078492;28;20395;-72
2021/09/03 06:17:00;;;;;;;21.88;13.75;;;11.40;96.00;;;;;;5077604;28;20024;-72
2021/09/03 06:19:26;;;;;;;19.95;13.63;;;11.80;97.50;;;;;;5077288;28;20459;-72
2021/09/03 06:21:52;;;;;;;22.90;14.40;;;12.10;98.00;;;;;;5058539;28;20033;-71
2021/09/03 06:24:30;;;;;;;21.67;13.30;;;12.60;98.00;;;;;;5062763;28;20478;-72
2021/09/03 06:26:57;;;;;;;17.13;11.55;;;13.10;98.00;;;;;;5058613;28;20085;-72
2021/09/03 06:29:40;;;;;;;21.15;12.30;;;13.50;98.00;;;;;;5063581;28;20033;-71
2021/09/03 06:32:20;;;;;;;18.00;11.68;;;13.40;98.00;;;;;;5073294;28;20119;-71
2021/09/03 06:34:51;;;;;;;19.90;12.00;;;13.20;98.00;;;;;;5077336;28;20028;-72
2021/09/03 06:37:19;;;;;;;21.95;11.95;;;12.90;98.00;;;;;;5077715;28;20399;-72
2021/09/03 06:39:45;;;;;;;20.30;11.60;;;12.70;98.00;;;;;;5059380;28;20410;-72
2021/09/03 06:42:12;;;;;;;19.85;12.38;;;12.70;98.00;;;;;;5065315;28;20359;-72
2021/09/03 06:44:38;;;;;;;22.23;12.95;;;12.70;98.00;;;;;;5078268;28;20020;-72
2021/09/03 06:47:05;;;;;;;21.63;12.68;;;12.80;98.00;;;;;;5071257;28;20051;-73
2021/09/03 06:49:33;;;;;;;21.55;13.23;;;13.00;98.00;;;;;;5078227;28;20059;-72
2021/09/03 06:51:58;;;;;;;21.60;12.98;;;13.10;98.00;;;;;;5077133;28;20028;-72
2021/09/03 06:54:24;;;;;;;16.98;11.15;;;13.10;98.00;;;;;;5075498;28;20025;-72
2021/09/03 06:56:50;;;;;;;22.45;12.13;;;13.20;98.00;;;;;;5075961;28;20138;-72
2021/09/03 06:59:16;;;;;;;21.10;12.55;;;13.30;98.00;;;;;;5062686;28;20078;-72
2021/09/03 07:01:41;;;;;;;19.80;12.00;;;13.30;98.00;;;;;;5077222;28;20036;-72
2021/09/03 07:04:07;;;;;;;16.85;11.30;;;13.50;98.00;;;;;;5075317;28;20025;-72
2021/09/03 07:06:33;;;;;;;16.95;11.52;;;13.50;98.00;;;;;;5061605;28;20183;-72
2021/09/03 07:08:59;;;;;;;22.08;13.00;;;13.70;98.00;;;;;;5070525;28;20033;-72
2021/09/03 07:11:25;;;;;;;19.48;12.10;;;13.80;98.00;;;;;;5071418;28;20028;-72
2021/09/03 07:13:50;;;;;;;21.08;12.25;;;14.00;98.00;;;;;;5076102;28;20016;-71
2021/09/03 07:16:16;;;;;;;20.88;12.02;;;14.10;98.00;;;;;;5067152;28;20085;-70
2021/09/03 07:18:42;;;;;;;20.35;11.32;;;14.20;98.00;;;;;;5077215;28;20036;-71
2021/09/03 07:21:08;;;;;;;21.33;11.27;;;14.20;98.00;;;;;;5077729;28;20032;-70
2021/09/03 07:23:33;;;;;;;16.60;10.50;;;14.20;98.00;;;;;;5071215;28;20017;-72
2021/09/03 07:26:03;;;;;;;17.63;10.57;;;14.30;98.00;;;;;;5074797;28;20618;-71
2021/09/03 07:28:28;;;;;;;30.50;12.00;;;14.50;98.00;;;;;;5077181;28;20032;-71
2021/09/03 07:30:54;;;;;;;17.80;11.05;;;14.70;98.00;;;;;;5076435;28;20097;-71
2021/09/03 07:33:20;;;;;;;17.90;11.18;;;14.90;98.00;;;;;;5075454;28;20024;-72
2021/09/03 07:35:46;;;;;;;17.10;10.63;;;15.10;97.90;;;;;;5077400;28;20036;-72
2021/09/03 07:38:13;;;;;;;15.40;10.32;;;15.20;97.50;;;;;;5072981;28;20029;-72
2021/09/03 07:40:39;;;;;;;15.88;9.85;;;15.20;97.00;;;;;;5057223;28;20025;-74
2021/09/03 07:43:07;;;;;;;16.65;9.02;;;15.40;96.80;;;;;;5062415;28;20020;-71
2021/09/03 07:45:34;;;;;;;16.95;9.30;;;15.50;96.80;;;;;;5075723;28;20024;-71
2021/09/03 07:48:01;;;;;;;14.18;8.85;;;15.60;96.10;;;;;;5076879;28;20021;-71
2021/09/03 07:50:27;;;;;;;13.27;8.73;;;15.60;96.70;;;;;;5069969;28;20034;-71
2021/09/03 07:52:53;;;;;;;15.43;8.68;;;15.70;96.90;;;;;;5061840;28;20418;-72
2021/09/03 07:55:19;;;;;;;13.85;9.18;;;15.70;96.50;;;;;;5057712;28;20041;-72
2021/09/03 07:57:44;;;;;;;13.02;8.70;;;15.80;96.90;;;;;;5072275;28;20074;-71
2021/09/03 08:00:10;;;;;;;13.35;8.35;;;15.90;96.70;;;;;;5064284;28;20028;-71
2021/09/03 08:02:36;;;;;;;13.07;7.60;;;16.20;96.20;;;;;;5070968;28;20043;-72
2021/09/03 08:05:04;;;;;;;14.75;7.13;;;16.90;95.00;;;;;;5067678;28;20053;-72
2021/09/03 08:07:30;;;;;;;12.55;7.32;;;18.50;89.50;;;;;;5057424;28;20330;-71
2021/09/03 08:09:56;;;;;;;12.15;6.88;;;19.80;85.60;;;;;;5059764;28;20032;-72
2021/09/03 08:12:23;;;;;;;10.95;7.03;;;20.50;82.30;;;;;;5066137;28;20017;-72
2021/09/03 08:14:49;;;;;;;10.85;6.70;;;20.90;81.50;;;;;;5056197;28;20029;-72
2021/09/03 08:17:15;;;;;;;11.45;6.70;;;21.50;79.50;;;;;;5055478;28;20294;-73
2021/09/03 08:19:41;;;;;;;11.82;7.15;;;22.30;78.20;;;;;;5064968;28;20023;-72
2021/09/03 08:22:06;;;;;;;10.98;6.75;;;22.60;76.80;;;;;;5068445;28;20024;-72
2021/09/03 08:24:32;;;;;;;11.23;7.30;;;22.20;78.50;;;;;;5055948;28;20029;-71
2021/09/03 08:26:58;;;;;;;13.38;7.30;;;22.10;78.60;;;;;;5064449;28;20029;-73
2021/09/03 08:29:23;;;;;;;10.90;7.28;;;22.10;78.30;;;;;;5076399;28;20056;-74
2021/09/03 08:31:49;;;;;;;12.88;6.90;;;21.90;80.00;;;;;;5062221;28;20029;-75
2021/09/03 08:34:16;;;;;;;10.55;6.30;;;21.90;78.30;;;;;;5056168;28;20032;-77
2021/09/03 08:36:42;;;;;;;12.80;7.53;;;21.80;79.80;;;;;;5066148;28;20017;-75
2021/09/03 08:39:08;;;;;;;9.82;6.57;;;21.70;79.70;;;;;;5071417;28;20028;-75
2021/09/03 08:41:36;;;;;;;12.85;7.03;;;22.60;78.30;;;;;;5066436;28;20079;-74
2021/09/03 08:44:01;;;;;;;10.73;7.00;;;23.10;76.40;;;;;;5053973;28;20108;-75
2021/09/03 08:46:28;;;;;;;13.15;7.30;;;23.00;75.80;;;;;;5055704;28;20510;-75
2021/09/03 08:48:54;;;;;;;11.95;6.65;;;23.30;75.70;;;;;;5056104;28;20114;-75
2021/09/03 08:51:20;;;;;;;11.85;7.18;;;23.70;74.20;;;;;;5055999;28;20059;-75
2021/09/03 08:53:46;;;;;;;11.80;6.85;;;23.80;74.20;;;;;;5060552;28;20075;-75
2021/09/03 08:56:12;;;;;;;10.85;6.93;;;24.10;73.70;;;;;;5069299;28;20025;-75
2021/09/03 08:58:39;;;;;;;10.80;6.57;;;24.80;71.60;;;;;;5068414;28;20031;-75
2021/09/03 09:01:13;;;;;;;11.95;7.55;;;24.40;72.30;;;;;;5055084;28;20040;-74
2021/09/03 09:03:39;;;;;;;10.60;6.43;;;24.00;73.60;;;;;;5056826;28;20635;-74
2021/09/03 09:06:06;;;;;;;10.93;6.50;;;23.90;74.00;;;;;;5056778;28;20033;-74
2021/09/03 09:08:34;;;;;;;11.52;6.60;;;23.90;74.70;;;;;;5065476;28;20017;-74
2021/09/03 09:11:06;;;;;;;9.40;6.13;;;24.40;73.10;;;;;;5059105;28;20033;-74
2021/09/03 09:13:37;;;;;;;10.30;5.85;;;24.80;73.10;;;;;;5056188;28;20314;-74
2021/09/03 09:16:07;;;;;;;11.75;6.30;;;25.10;73.30;;;;;;5073855;28;20024;-74
2021/09/03 09:18:45;;;;;;;11.18;6.93;;;25.40;71.30;;;;;;5067756;28;20017;-73
2021/09/03 09:21:20;;;;;;;10.48;6.57;;;24.50;73.10;;;;;;5071314;28;20020;-74
2021/09/03 09:24:00;;;;;;;9.90;6.22;;;25.20;73.20;;;;;;5063274;28;20036;-74
2021/09/03 09:26:51;;;;;;;10.63;6.43;;;25.80;71.10;;;;;;5055168;28;20020;-73
2021/09/03 09:29:18;;;;;;;9.18;5.70;;;26.10;70.40;;;;;;5063638;28;20029;-73
2021/09/03 09:31:46;;;;;;;10.35;6.63;;;25.70;72.20;;;;;;5067314;28;20067;-74
2021/09/03 09:34:30;;;;;;;13.07;6.82;;;25.90;71.00;;;;;;5061772;28;20028;-73
2021/09/03 09:36:56;;;;;;;;;;;26.00;70.20;;;;;;5074929;28;20059;-73
2021/09/03 09:39:24;;;;;;;9.50;5.93;;;25.20;72.00;;;;;;5058717;28;19966;-73
2021/09/03 09:42:03;;;;;;;10.57;6.22;;;24.90;73.40;;;;;;5058319;28;20033;-73
2021/09/03 09:44:30;;;;;;;9.15;6.03;;;25.40;73.10;;;;;;5067563;28;20024;-73
2021/09/03 09:47:06;;;;;;;10.05;5.97;;;25.50;73.10;;;;;;5062721;28;20037;-72
2021/09/03 09:49:32;;;;;;;10.07;5.95;;;26.20;70.90;;;;;;5070893;28;20314;-72
2021/09/03 09:51:58;;;;;;;9.73;6.15;;;26.70;69.40;;;;;;5058745;28;20032;-73
2021/09/03 09:54:25;;;;;;;10.27;6.22;;;26.80;68.20;;;;;;5070719;28;20067;-72
2021/09/03 09:56:52;;;;;;;9.73;5.50;;;26.20;70.80;;;;;;5054071;28;20330;-72
2021/09/03 09:59:20;;;;;;;11.25;6.03;;;25.70;72.00;;;;;;5054132;28;20086;-72
2021/09/03 10:01:49;;;;;;;9.77;6.05;;;25.80;72.20;;;;;;5066298;28;20029;-72
2021/09/03 10:04:21;;;;;;;10.48;6.68;;;26.00;72.70;;;;;;5063806;28;20105;-72
2021/09/03 10:06:49;;;;;;;12.38;6.38;;;25.70;72.10;;;;;;5062096;28;20329;-72
2021/09/03 10:09:17;;;;;;;10.32;6.07;;;25.90;71.40;;;;;;5060249;28;20020;-71
2021/09/03 10:11:45;;;;;;;11.52;6.70;;;25.80;72.50;;;;;;5063682;28;20111;-72
2021/09/03 10:14:16;;;;;;;10.93;6.97;;;25.00;73.40;;;;;;5065933;28;20029;-71
2021/09/03 10:16:45;;;;;;;9.88;6.30;;;25.10;73.10;;;;;;5072045;28;20036;-71
2021/09/03 10:19:15;;;;;;;11.90;6.90;;;25.20;73.30;;;;;;5058825;28;20458;-74
2021/09/03 10:21:41;;;;;;;11.02;6.72;;;25.20;72.90;;;;;;5058712;28;20021;-72
2021/09/03 10:24:14;;;;;;;10.00;6.47;;;25.20;74.20;;;;;;5063543;28;20095;-73
2021/09/03 10:26:45;;;;;;;10.00;5.93;;;25.40;73.00;;;;;;5073376;28;20025;-72
2021/09/03 10:29:10;;;;;;;9.82;6.25;;;25.70;73.00;;;;;;5062000;28;20037;-72
2021/09/03 10:31:56;;;;;;;10.82;7.53;;;25.50;72.60;;;;;;5074699;28;20325;-72
2021/09/03 10:37:15;;;;;;;;;;;24.90;74.40;;;;;;5062143;28;20067;-72
2021/09/03 10:40:37;;;;;;;9.15;5.70;;;24.80;75.90;;;;;;5076920;28;19912;-72
2021/09/03 10:43:05;;;;;;;9.35;6.60;;;25.70;73.40;;;;;;5007369;28;20465;-72
2021/09/03 10:45:43;;;;;;;12.80;7.40;;;26.60;71.70;;;;;;5014751;28;20030;-72
2021/09/03 10:48:18;;;;;;;9.35;6.70;;;26.20;71.20;;;;;;5044727;28;20033;-71
2021/09/03 10:50:51;;;;;;;12.70;7.07;;;25.60;73.10;;;;;;5073917;28;20038;-72
2021/09/03 10:53:19;;;;;;;11.27;6.28;;;25.60;72.80;;;;;;5060106;28;20549;-72
2021/09/03 10:56:03;;;;;;;10.65;6.30;;;26.10;73.50;;;;;;5063176;28;20060;-72
2021/09/03 10:58:44;;;;;;;12.35;6.40;;;26.90;71.00;;;;;;5057455;28;20448;-72
2021/09/03 11:01:10;;;;;;;9.82;6.40;;;27.10;71.10;;;;;;5057454;28;20112;-73
2021/09/03 11:03:49;;;;;;;8.88;5.90;;;27.50;68.80;;;;;;5057022;28;20103;-72
2021/09/03 11:06:27;;;;;;;10.65;6.80;;;27.50;69.60;;;;;;5060039;28;20057;-72
2021/09/03 11:08:58;;;;;;;10.90;6.70;;;26.50;69.60;;;;;;5056541;28;20109;-72
2021/09/03 11:11:39;;;;;;;10.55;5.95;;;26.10;72.00;;;;;;5064660;28;20025;-73
2021/09/03 11:14:13;;;;;;;17.48;7.47;;;26.20;72.50;;;;;;5057969;28;20334;-72
2021/09/03 11:16:56;;;;;;;10.25;7.10;;;26.00;71.60;;;;;;5065393;28;20032;-71
2021/09/03 11:19:23;;;;;;;12.80;7.68;;;25.50;72.90;;;;;;5056550;28;20029;-74
2021/09/03 11:22:02;;;;;;;15.20;6.75;;;25.90;72.90;;;;;;5062534;28;20020;-72
2021/09/03 11:24:38;;;;;;;11.27;6.88;;;26.50;72.40;;;;;;5076351;28;20017;-72
2021/09/03 11:27:06;;;;;;;12.15;7.15;;;26.80;71.30;;;;;;5057319;28;20032;-72
2021/09/03 11:29:35;;;;;;;11.65;6.95;;;26.40;70.60;;;;;;5065705;28;20424;-72
2021/09/03 11:32:03;;;;;;;10.05;6.65;;;25.90;72.10;;;;;;5064656;28;20040;-72
2021/09/03 11:34:46;;;;;;;10.15;6.38;;;25.90;73.10;;;;;;5062462;28;20036;-72
2021/09/03 11:37:25;;;;;;;10.80;7.88;;;26.50;72.30;;;;;;5058113;28;20154;-72
2021/09/03 11:39:56;;;;;;;11.02;7.00;;;26.70;70.50;;;;;;5058212;28;20028;-72
2021/09/03 11:42:27;;;;;;;11.88;7.93;;;26.80;71.00;;;;;;5064471;28;20028;-72
2021/09/03 11:45:00;;;;;;;11.65;7.18;;;26.90;70.30;;;;;;5073534;28;20028;-71
2021/09/03 11:47:46;;;;;;;12.27;6.93;;;26.40;71.20;;;;;;5075802;28;20028;-72
2021/09/03 11:50:16;;;;;;;13.18;7.55;;;25.80;72.50;;;;;;5073920;28;20032;-72
2021/09/03 11:52:43;;;;;;;15.13;7.25;;;25.50;73.40;;;;;;5060673;28;20037;-72
2021/09/03 11:55:15;;;;;;;12.35;7.55;;;25.70;73.70;;;;;;5069718;28;20031;-72
2021/09/03 11:57:59;;;;;;;12.45;7.40;;;25.80;72.50;;;;;;5075218;28;20021;-72
2021/09/03 12:00:28;;;;;;;11.70;6.88;;;25.60;74.20;;;;;;5070247;28;20020;-72
2021/09/03 12:02:55;;;;;;;11.05;7.35;;;25.70;73.40;;;;;;5071218;28;20130;-72
2021/09/03 12:05:22;;;;;;;12.70;7.70;;;25.60;73.20;;;;;;5055476;28;20341;-72
2021/09/03 12:08:06;;;;;;;11.38;7.65;;;25.80;73.70;;;;;;5057350;28;20055;-72
2021/09/03 12:10:37;;;;;;;12.00;7.22;;;26.10;72.30;;;;;;5057321;28;20029;-72
2021/09/03 12:13:10;;;;;;;12.23;8.02;;;26.30;72.10;;;;;;5065830;28;20021;-71
2021/09/03 12:15:35;;;;;;;13.43;8.23;;;26.30;71.70;;;;;;5057634;28;20035;-71
2021/09/03 12:18:02;;;;;;;10.57;7.82;;;25.90;73.40;;;;;;5069628;28;20028;-72
2021/09/03 12:20:31;;;;;;;12.73;7.20;;;25.40;73.20;;;;;;5064215;28;20028;-72
2021/09/03 12:22:56;;;;;;;10.98;6.93;;;25.60;74.20;;;;;;5055883;28;20025;-71
2021/09/03 12:25:34;;;;;;;12.40;7.50;;;25.70;73.60;;;;;;5058253;28;20024;-73
2021/09/03 12:28:30;;;;;;;11.45;7.53;;;26.00;74.30;;;;;;5068678;28;20307;-72
2021/09/03 12:30:56;;;;;;;15.95;8.30;;;26.00;73.00;;;;;;5046968;28;20059;-71
2021/09/03 12:33:29;;;;;;;11.48;7.53;;;25.70;73.50;;;;;;5068503;28;20021;-72
2021/09/03 12:35:56;;;;;;;;;;;25.80;73.40;;;;;;5064230;28;20028;-72
2021/09/03 12:38:33;;;;;;;15.93;7.78;;;25.50;74.20;;;;;;5057262;28;19954;-71
2021/09/03 12:41:13;;;;;;;11.45;7.45;;;25.20;74.90;;;;;;5074076;28;20421;-72
2021/09/03 12:43:40;;;;;;;11.75;8.00;;;25.30;75.50;;;;;;5075779;28;20027;-72
2021/09/03 12:46:12;;;;;;;12.98;7.65;;;25.20;75.10;;;;;;5065878;28;20344;-72